Kornman, Colorado
Current Conditions -  °F | °C
As of 4:53 PM on Wednesday 22 Oct 2014 (Local Time) from KLAA Reporting Station
Clear Clear  
Wind Chill: 74°   Ceiling: Unl
Heat Index: 74°   Visibility: 10mi
Dew Point: 44°   Wind: 8mph
Humidity: 34%   Direction: 80°E
Pressure: 30"   Gusts: NA
Location:  37.885°N, 102.667°W
Report Text: KLAA 222253Z AUTO 08007KT 10SM CLR 23/07 A3000 RMK AO2 SLP120 T02330067
Loading
Personal Weather Stations






























Interactive Weather Map
Tropical Storm Tracking
New forecast layout! Learn more

10-Day Weather Forecast

Advertisements
Track Severe Weather on mobile